Time;durP1;ratioP1;P1;durP2;ratioP2;P2;SDS_P1;SDS_P2;PMS_P1;PMS_P2;Temp;Humidity;BMP_temperature;BMP_pressure;BME280_temperature;BME280_humidity;BME280_pressure;Samples;Min_cycle;Max_cycle;Signal;HPM_P1;HPM_P2
2022/04/11 00:00:14;;;;;;;9.93;3.10;;;3.50;86.20;;;;;;4880473;29;20343;-89
2022/04/11 00:02:40;;;;;;;8.07;2.83;;;3.40;86.20;;;;;;4881644;29;20197;-89
2022/04/11 00:05:06;;;;;;;5.57;3.33;;;3.40;86.30;;;;;;4880428;29;20645;-90
2022/04/11 00:07:31;;;;;;;10.97;3.27;;;3.40;86.40;;;;;;4880232;29;20540;-90
2022/04/11 00:09:57;;;;;;;12.53;3.40;;;3.40;86.40;;;;;;4880323;29;20189;-91
2022/04/11 00:12:23;;;;;;;13.90;3.63;;;3.50;86.20;;;;;;4881512;29;20186;-87
2022/04/11 00:14:48;;;;;;;12.80;3.30;;;3.50;86.20;;;;;;4880382;29;20206;-88
2022/04/11 00:17:14;;;;;;;8.10;3.30;;;3.30;86.30;;;;;;4881767;29;20190;-86
2022/04/11 00:19:39;;;;;;;8.27;3.33;;;3.40;86.40;;;;;;4879959;29;20210;-87
2022/04/11 00:22:05;;;;;;;11.73;3.40;;;3.40;86.40;;;;;;4881653;29;20241;-88
2022/04/11 00:24:30;;;;;;;8.40;3.60;;;3.30;86.50;;;;;;4880104;29;20230;-86
2022/04/11 00:26:56;;;;;;;8.77;3.50;;;3.30;86.40;;;;;;4880159;29;20222;-86
2022/04/11 00:29:21;;;;;;;8.43;2.80;;;3.30;86.30;;;;;;4881455;29;20202;-87
2022/04/11 00:31:47;;;;;;;9.10;3.13;;;3.30;86.30;;;;;;4880133;29;20554;-87
2022/04/11 00:34:12;;;;;;;14.57;3.13;;;3.20;86.60;;;;;;4880144;29;20178;-90
2022/04/11 00:36:38;;;;;;;9.10;3.47;;;3.20;86.60;;;;;;4881611;29;20184;-88
2022/04/11 00:39:03;;;;;;;7.43;3.10;;;3.20;86.70;;;;;;4879919;29;20216;-88
2022/04/11 00:41:29;;;;;;;9.27;2.67;;;3.30;86.50;;;;;;4881127;29;20525;-87
2022/04/11 00:44:06;;;;;;;5.90;2.60;;;3.20;86.30;;;;;;4881114;29;20653;-89
2022/04/11 00:46:32;;;;;;;10.90;3.27;;;3.30;86.10;;;;;;4879862;29;20684;-86
2022/04/11 00:48:57;;;;;;;7.97;3.33;;;3.20;86.10;;;;;;4879668;29;20231;-89
2022/04/11 00:51:24;;;;;;;12.57;3.63;;;3.20;86.30;;;;;;4879755;29;20218;-88
2022/04/11 00:53:51;;;;;;;9.50;3.10;;;3.20;86.40;;;;;;4879835;29;20178;-89
2022/04/11 00:56:18;;;;;;;15.13;3.77;;;3.20;86.30;;;;;;4879682;29;20232;-88
2022/04/11 00:58:45;;;;;;;9.90;3.27;;;3.20;86.30;;;;;;4879415;29;20201;-88
2022/04/11 01:01:11;;;;;;;8.27;3.30;;;3.10;86.30;;;;;;4879394;29;20212;-88
2022/04/11 01:03:37;;;;;;;9.00;3.30;;;3.10;86.40;;;;;;4879513;29;20261;-88
2022/04/11 01:06:03;;;;;;;12.57;3.57;;;3.10;86.40;;;;;;4880560;29;20174;-88
2022/04/11 01:08:28;;;;;;;11.53;3.40;;;3.00;86.40;;;;;;4879144;29;20696;-89
2022/04/11 01:10:54;;;;;;;5.83;3.30;;;3.10;86.40;;;;;;4879376;29;20192;-88
2022/04/11 01:13:21;;;;;;;4.07;2.83;;;3.00;86.40;;;;;;4880493;29;20543;-88
2022/04/11 01:15:56;;;;;;;8.37;3.43;;;3.00;86.40;;;;;;4880428;29;20228;-89
2022/04/11 01:18:22;;;;;;;5.93;2.20;;;2.90;86.60;;;;;;4879049;29;20200;-87
2022/04/11 01:20:48;;;;;;;4.50;2.90;;;2.90;86.60;;;;;;4878992;29;20216;-87
2022/04/11 01:23:14;;;;;;;11.43;3.30;;;2.90;86.70;;;;;;4880239;29;20201;-89
2022/04/11 01:25:40;;;;;;;10.20;3.00;;;2.90;86.70;;;;;;4879369;29;20184;-88
2022/04/11 01:28:06;;;;;;;13.50;3.27;;;2.90;86.50;;;;;;4880263;29;20190;-88
2022/04/11 01:30:31;;;;;;;18.13;4.00;;;2.90;86.50;;;;;;4880318;29;20185;-88
2022/04/11 01:32:57;;;;;;;13.23;3.60;;;2.90;86.30;;;;;;4879328;29;20663;-89
2022/04/11 01:35:25;;;;;;;7.67;2.83;;;2.90;86.40;;;;;;4879272;29;20188;-88
2022/04/11 01:37:51;;;;;;;8.13;3.17;;;2.90;86.30;;;;;;4880187;29;20197;-88
2022/04/11 01:40:17;;;;;;;9.83;3.73;;;2.90;86.20;;;;;;4879111;29;20633;-86
2022/04/11 01:42:43;;;;;;;8.77;3.60;;;2.80;86.00;;;;;;4878887;29;20203;-90
2022/04/11 01:45:10;;;;;;;11.83;3.30;;;2.80;86.00;;;;;;4878909;29;20233;-88
2022/04/11 01:47:38;;;;;;;10.77;2.90;;;2.80;86.00;;;;;;4879194;29;20710;-90
2022/04/11 01:50:04;;;;;;;14.27;3.13;;;2.80;86.00;;;;;;4878660;29;20708;-88
2022/04/11 01:52:29;;;;;;;9.13;3.10;;;2.70;86.00;;;;;;4879533;29;20184;-89
2022/04/11 01:54:55;;;;;;;11.53;2.80;;;2.70;86.10;;;;;;4880046;29;20182;-89
2022/04/11 01:57:20;;;;;;;13.80;3.13;;;2.60;86.30;;;;;;4879911;29;20674;-88
2022/04/11 01:59:46;;;;;;;10.27;3.33;;;2.60;86.50;;;;;;4878759;29;20256;-87
2022/04/11 02:02:11;;;;;;;8.00;2.97;;;2.60;86.50;;;;;;4878870;29;20188;-88
2022/04/11 02:04:37;;;;;;;7.63;2.97;;;2.60;86.50;;;;;;4879042;29;20209;-88
2022/04/11 02:07:02;;;;;;;16.03;2.97;;;2.60;86.50;;;;;;4878748;29;20613;-88
2022/04/11 02:09:28;;;;;;;6.97;3.10;;;2.60;86.30;;;;;;4879691;29;20712;-87
2022/04/11 02:11:54;;;;;;;12.10;2.80;;;2.70;86.20;;;;;;4878613;29;20653;-88
2022/04/11 02:14:19;;;;;;;7.37;2.83;;;2.70;86.10;;;;;;4878567;29;20192;-88
2022/04/11 02:16:45;;;;;;;12.40;5.73;;;2.80;86.00;;;;;;4879112;29;20196;-88
2022/04/11 02:19:10;;;;;;;5.93;2.97;;;2.80;85.90;;;;;;4878943;29;20231;-89
2022/04/11 02:21:36;;;;;;;9.90;2.90;;;2.80;85.70;;;;;;4879275;29;20185;-87
2022/04/11 02:24:01;;;;;;;7.33;2.87;;;2.80;85.60;;;;;;4878794;29;20241;-87
2022/04/11 02:26:26;;;;;;;9.77;3.33;;;2.80;85.60;;;;;;4879139;29;20193;-88
2022/04/11 02:28:52;;;;;;;9.87;3.23;;;2.80;85.70;;;;;;4879001;29;20694;-90
2022/04/11 02:31:17;;;;;;;11.77;3.00;;;2.80;85.70;;;;;;4879049;29;20186;-87
2022/04/11 02:33:43;;;;;;;12.43;3.57;;;2.80;85.60;;;;;;4879026;29;20238;-87
2022/04/11 02:36:09;;;;;;;6.57;3.17;;;2.80;85.70;;;;;;4880074;29;20656;-89
2022/04/11 02:38:34;;;;;;;7.47;3.70;;;2.80;85.70;;;;;;4878941;29;20581;-88
2022/04/11 02:41:00;;;;;;;10.97;3.13;;;2.90;85.70;;;;;;4879114;29;20206;-88
2022/04/11 02:43:25;;;;;;;7.40;2.70;;;2.90;85.60;;;;;;4879018;29;20677;-89
2022/04/11 02:45:51;;;;;;;4.70;2.70;;;2.90;85.60;;;;;;4880341;29;20182;-87
2022/04/11 02:48:16;;;;;;;11.67;3.23;;;2.90;85.50;;;;;;4878820;29;20210;-88
2022/04/11 02:50:41;;;;;;;11.50;3.57;;;2.80;85.40;;;;;;4880124;29;20656;-88
2022/04/11 02:53:07;;;;;;;7.57;3.13;;;2.80;85.40;;;;;;4880320;29;20193;-88
2022/04/11 02:55:33;;;;;;;8.80;3.50;;;2.90;85.20;;;;;;4878721;29;20185;-88
2022/04/11 02:57:58;;;;;;;13.20;3.27;;;2.80;85.30;;;;;;4879944;29;20200;-88
2022/04/11 03:00:24;;;;;;;8.50;3.17;;;2.80;85.30;;;;;;4882791;29;20201;-87
2022/04/11 03:02:49;;;;;;;8.00;3.20;;;2.80;85.30;;;;;;4881593;29;20177;-87
2022/04/11 03:05:15;;;;;;;5.20;3.10;;;2.70;85.30;;;;;;4883065;29;20204;-88
2022/04/11 03:07:40;;;;;;;10.60;3.13;;;2.70;85.20;;;;;;4881987;29;20217;-88
2022/04/11 03:10:07;;;;;;;7.13;2.53;;;2.60;85.30;;;;;;4881812;29;20174;-87
2022/04/11 03:12:36;;;;;;;5.70;2.87;;;2.60;85.40;;;;;;4881855;29;20188;-88
2022/04/11 03:15:02;;;;;;;14.30;3.53;;;2.60;85.50;;;;;;4883190;29;20182;-87
2022/04/11 03:17:28;;;;;;;7.90;3.27;;;2.40;85.90;;;;;;4881799;29;20184;-88
2022/04/11 03:19:53;;;;;;;7.37;3.13;;;2.40;86.30;;;;;;4881616;29;20241;-88
2022/04/11 03:22:19;;;;;;;8.90;4.00;;;2.40;86.40;;;;;;4881665;29;20194;-88
2022/04/11 03:24:44;;;;;;;11.30;3.70;;;2.30;86.50;;;;;;4881922;29;20197;-87
2022/04/11 03:27:10;;;;;;;10.50;4.27;;;2.30;86.60;;;;;;4881508;29;20189;-88
2022/04/11 03:29:35;;;;;;;13.00;3.77;;;2.30;86.60;;;;;;4882377;29;20292;-88
2022/04/11 03:32:01;;;;;;;14.20;3.70;;;2.30;86.60;;;;;;4882978;29;20551;-89
2022/04/11 03:34:27;;;;;;;18.40;3.90;;;2.30;86.80;;;;;;4882683;29;20193;-87
2022/04/11 03:36:52;;;;;;;10.43;3.70;;;2.30;86.70;;;;;;4881512;29;20194;-89
2022/04/11 03:39:18;;;;;;;10.53;3.63;;;2.30;86.70;;;;;;4882836;29;20194;-87
2022/04/11 03:41:43;;;;;;;9.53;3.50;;;2.20;86.60;;;;;;4882806;29;20174;-89
2022/04/11 03:44:10;;;;;;;10.63;3.57;;;2.10;86.80;;;;;;4882814;29;20204;-88
2022/04/11 03:46:38;;;;;;;10.97;3.93;;;2.10;87.00;;;;;;4882828;29;20229;-88
2022/04/11 03:49:05;;;;;;;12.17;3.60;;;2.00;87.20;;;;;;4882548;29;20284;-89
2022/04/11 03:51:30;;;;;;;11.30;3.60;;;2.10;87.20;;;;;;4881323;29;20237;-89
2022/04/11 03:53:56;;;;;;;10.97;3.70;;;2.20;87.00;;;;;;4882614;29;20188;-88
2022/04/11 03:56:22;;;;;;;6.87;3.20;;;2.10;86.70;;;;;;4882399;29;20675;-88
2022/04/11 03:58:48;;;;;;;9.07;3.33;;;2.20;86.70;;;;;;4880982;29;20683;-89
2022/04/11 04:01:13;;;;;;;5.20;3.50;;;2.20;86.50;;;;;;4881022;29;20213;-86
2022/04/11 04:03:40;;;;;;;10.30;3.60;;;2.20;86.40;;;;;;4882530;29;20675;-87
2022/04/11 04:06:06;;;;;;;10.80;3.20;;;2.20;86.30;;;;;;4880890;29;20533;-89
2022/04/11 04:08:31;;;;;;;11.30;3.50;;;2.30;86.20;;;;;;4882041;29;20273;-89
2022/04/11 04:10:57;;;;;;;5.63;3.37;;;2.30;86.10;;;;;;4881476;29;20263;-88
2022/04/11 04:13:22;;;;;;;9.33;3.10;;;2.30;86.20;;;;;;4881967;29;20548;-88
2022/04/11 04:15:48;;;;;;;6.30;3.00;;;2.20;86.20;;;;;;4880567;29;20196;-89
2022/04/11 04:18:14;;;;;;;8.43;3.53;;;2.20;86.20;;;;;;4880715;29;20682;-88
2022/04/11 04:20:40;;;;;;;6.73;3.30;;;2.30;86.10;;;;;;4881808;29;20224;-86
2022/04/11 04:23:06;;;;;;;9.97;3.60;;;2.30;85.90;;;;;;4881251;29;20177;-88
2022/04/11 04:25:36;;;;;;;13.07;4.23;;;2.30;85.70;;;;;;4881457;29;20180;-88
2022/04/11 04:28:03;;;;;;;6.97;3.60;;;2.40;85.40;;;;;;4879987;29;20625;-89
2022/04/11 04:30:31;;;;;;;11.13;3.30;;;2.30;85.30;;;;;;4880053;29;20223;-89
2022/04/11 04:33:00;;;;;;;10.10;3.60;;;2.40;85.30;;;;;;4879968;29;20282;-88
2022/04/11 04:35:26;;;;;;;5.90;2.90;;;2.40;85.10;;;;;;4880213;29;20182;-88
2022/04/11 04:37:52;;;;;;;9.63;3.63;;;2.40;85.20;;;;;;4881135;29;20203;-90
2022/04/11 04:40:18;;;;;;;6.60;3.67;;;2.30;85.30;;;;;;4880051;29;20212;-89
2022/04/11 04:42:44;;;;;;;9.93;3.37;;;2.30;85.40;;;;;;4880141;29;20177;-88
2022/04/11 04:45:09;;;;;;;12.63;3.50;;;2.30;85.50;;;;;;4881256;29;20179;-89
2022/04/11 04:47:35;;;;;;;8.37;3.83;;;2.30;85.60;;;;;;4881218;29;20181;-87
2022/04/11 04:50:01;;;;;;;8.93;3.60;;;2.40;85.70;;;;;;4880001;29;20539;-89
2022/04/11 04:52:26;;;;;;;11.77;3.80;;;2.40;85.60;;;;;;4881085;29;20530;-87
2022/04/11 04:54:52;;;;;;;9.93;4.17;;;2.40;85.50;;;;;;4881413;29;20704;-89
2022/04/11 04:57:17;;;;;;;8.70;3.27;;;2.50;85.30;;;;;;4879735;29;20187;-87
2022/04/11 04:59:43;;;;;;;8.60;3.60;;;2.60;84.90;;;;;;4880933;29;20580;-88
2022/04/11 05:02:08;;;;;;;8.07;3.53;;;2.80;84.70;;;;;;4879641;29;20190;-88
2022/04/11 05:04:34;;;;;;;7.77;3.23;;;2.90;84.60;;;;;;4879791;29;20195;-88
2022/04/11 05:07:00;;;;;;;7.60;3.33;;;2.80;84.40;;;;;;4879917;29;20189;-88
2022/04/11 05:09:25;;;;;;;9.20;4.17;;;2.90;84.50;;;;;;4879748;29;20225;-88
2022/04/11 05:11:51;;;;;;;12.13;3.70;;;2.90;84.50;;;;;;4879965;29;20570;-88
2022/04/11 05:14:16;;;;;;;14.97;3.67;;;2.90;84.60;;;;;;4879597;29;20195;-88
2022/04/11 05:16:42;;;;;;;14.17;4.33;;;3.00;84.50;;;;;;4879800;29;20187;-87
2022/04/11 05:19:07;;;;;;;12.37;4.67;;;3.00;84.50;;;;;;4881044;29;20204;-88
2022/04/11 05:21:33;;;;;;;10.67;4.03;;;2.90;85.20;;;;;;4880170;29;20212;-88
2022/04/11 05:23:58;;;;;;;10.63;4.57;;;3.00;85.40;;;;;;4879761;29;20201;-88
2022/04/11 05:26:24;;;;;;;11.43;4.73;;;3.00;85.30;;;;;;4880316;29;20205;-88
2022/04/11 05:28:50;;;;;;;6.03;3.60;;;3.00;85.40;;;;;;4879110;29;20210;-89
2022/04/11 05:31:16;;;;;;;8.60;4.93;;;3.10;85.40;;;;;;4879051;29;20186;-88
2022/04/11 05:33:42;;;;;;;10.87;4.13;;;3.10;85.20;;;;;;4878978;29;20197;-88
2022/04/11 05:36:07;;;;;;;8.87;4.70;;;3.20;85.30;;;;;;4878997;29;20203;-88
2022/04/11 05:38:33;;;;;;;10.33;4.00;;;3.20;85.30;;;;;;4878816;29;20217;-88
2022/04/11 05:40:59;;;;;;;11.30;3.83;;;3.30;85.50;;;;;;4880265;29;20664;-88
2022/04/11 05:43:24;;;;;;;9.90;3.60;;;3.30;85.50;;;;;;4880448;29;20178;-88
2022/04/11 05:45:50;;;;;;;11.13;3.90;;;3.40;85.80;;;;;;4879923;29;20260;-88
2022/04/11 05:48:16;;;;;;;6.40;4.37;;;3.50;85.60;;;;;;4878841;29;20624;-88
2022/04/11 05:50:41;;;;;;;9.47;4.90;;;3.60;85.40;;;;;;4880180;29;20247;-88
2022/04/11 05:53:07;;;;;;;12.73;4.40;;;3.60;85.30;;;;;;4879068;29;20186;-89
2022/04/11 05:55:32;;;;;;;11.53;3.93;;;3.70;85.10;;;;;;4880154;29;20174;-88
2022/04/11 05:57:59;;;;;;;5.73;3.90;;;3.80;85.10;;;;;;4878627;29;20307;-88
2022/04/11 06:00:25;;;;;;;10.93;4.93;;;3.80;84.90;;;;;;4879016;29;20244;-87
2022/04/11 06:02:50;;;;;;;10.03;4.03;;;3.90;84.90;;;;;;4878827;29;20182;-87
2022/04/11 06:05:16;;;;;;;7.03;4.23;;;3.90;84.80;;;;;;4878987;29;20280;-87
2022/04/11 06:07:41;;;;;;;11.00;4.97;;;4.10;85.20;;;;;;4878368;29;20210;-87
2022/04/11 06:10:08;;;;;;;8.23;3.83;;;4.20;85.00;;;;;;4880241;29;20177;-86
2022/04/11 06:12:34;;;;;;;7.90;3.83;;;4.20;84.00;;;;;;4879995;29;20202;-89
2022/04/11 06:15:00;;;;;;;9.70;4.30;;;4.20;83.40;;;;;;4879750;29;20657;-87
2022/04/11 06:17:26;;;;;;;11.10;4.27;;;4.40;83.90;;;;;;4878404;29;20265;-87
2022/04/11 06:19:56;;;;;;;10.83;5.27;;;4.40;83.50;;;;;;4878762;29;20220;-89
2022/04/11 06:22:23;;;;;;;14.90;4.53;;;4.40;83.20;;;;;;4879287;29;20230;-85
2022/04/11 06:24:49;;;;;;;7.73;4.03;;;4.40;83.60;;;;;;4880084;29;20189;-87
2022/04/11 06:27:15;;;;;;;10.57;4.10;;;4.50;83.40;;;;;;4878840;29;20249;-85
2022/04/11 06:29:42;;;;;;;9.17;4.10;;;4.60;83.00;;;;;;4878981;29;20202;-86
2022/04/11 06:32:08;;;;;;;7.73;3.53;;;4.60;83.30;;;;;;4879822;29;20265;-88
2022/04/11 06:34:35;;;;;;;10.27;4.03;;;4.80;83.70;;;;;;4881648;29;20230;-88
2022/04/11 06:37:01;;;;;;;13.70;4.37;;;4.80;83.80;;;;;;4881999;29;20189;-89
2022/04/11 06:39:27;;;;;;;10.23;4.33;;;4.90;83.40;;;;;;4883088;29;20270;-89
2022/04/11 06:41:53;;;;;;;8.97;4.13;;;5.00;83.10;;;;;;4881974;29;20178;-88
2022/04/11 06:44:18;;;;;;;7.13;3.77;;;5.00;83.00;;;;;;4883004;29;20251;-86
2022/04/11 06:46:44;;;;;;;11.30;3.90;;;5.10;83.60;;;;;;4881687;29;20624;-87
2022/04/11 06:49:10;;;;;;;12.37;4.83;;;5.10;83.20;;;;;;4881656;29;20204;-86
2022/04/11 06:51:35;;;;;;;11.77;5.13;;;5.20;82.60;;;;;;4883045;29;20261;-86
2022/04/11 06:54:01;;;;;;;10.13;4.30;;;5.30;83.30;;;;;;4881729;29;20180;-86
2022/04/11 06:56:26;;;;;;;9.23;5.20;;;5.30;82.60;;;;;;4881634;29;20192;-88
2022/04/11 06:58:52;;;;;;;13.30;4.20;;;5.30;82.60;;;;;;4882950;29;20773;-90
2022/04/11 07:01:18;;;;;;;8.13;4.13;;;5.40;82.80;;;;;;4882463;29;20211;-90
2022/04/11 07:03:43;;;;;;;9.90;4.07;;;5.40;82.10;;;;;;4883875;29;20315;-86
2022/04/11 07:06:10;;;;;;;8.20;4.17;;;5.50;82.80;;;;;;4883084;29;20234;-87
2022/04/11 07:08:36;;;;;;;10.43;4.33;;;5.50;82.70;;;;;;4881882;29;20215;-84
2022/04/11 07:11:01;;;;;;;10.43;4.90;;;5.40;81.90;;;;;;4882029;29;20189;-86
2022/04/11 07:13:27;;;;;;;11.33;4.97;;;5.40;81.70;;;;;;4881758;29;20243;-88
2022/04/11 07:15:53;;;;;;;8.90;4.93;;;5.50;82.30;;;;;;4881419;29;20223;-87
2022/04/11 07:18:25;;;;;;;13.23;4.57;;;5.50;82.20;;;;;;4881345;29;20264;-87
2022/04/11 07:20:51;;;;;;;11.07;4.90;;;5.60;82.50;;;;;;4881206;29;20232;-88
2022/04/11 07:23:16;;;;;;;14.33;4.40;;;5.70;82.50;;;;;;4881409;29;20209;-88
2022/04/11 07:25:42;;;;;;;9.97;4.23;;;5.80;82.30;;;;;;4881375;29;20189;-87
2022/04/11 07:28:08;;;;;;;13.50;4.43;;;5.80;81.10;;;;;;4881232;29;20708;-86
2022/04/11 07:30:33;;;;;;;12.77;4.93;;;5.90;82.40;;;;;;4882906;29;20560;-87
2022/04/11 07:32:59;;;;;;;13.70;6.20;;;6.00;82.60;;;;;;4883779;29;20189;-86
2022/04/11 07:35:24;;;;;;;11.03;4.43;;;6.00;82.50;;;;;;4881445;29;20613;-87
2022/04/11 07:37:50;;;;;;;14.77;4.90;;;5.90;81.80;;;;;;4883826;29;20249;-91
2022/04/11 07:40:16;;;;;;;11.63;5.17;;;6.00;81.70;;;;;;4881566;29;20299;-87
2022/04/11 07:42:41;;;;;;;8.53;4.73;;;5.90;81.80;;;;;;4882561;29;20644;-87
2022/04/11 07:45:07;;;;;;;13.33;4.97;;;6.00;81.60;;;;;;4882078;29;20228;-87
2022/04/11 07:47:40;;;;;;;10.77;4.97;;;6.20;81.90;;;;;;4884221;29;20263;-92
2022/04/11 07:50:06;;;;;;;9.33;4.67;;;6.20;81.30;;;;;;4882377;29;20628;-86
2022/04/11 07:52:32;;;;;;;20.97;5.80;;;6.30;81.70;;;;;;4880702;29;20189;-88
2022/04/11 07:54:57;;;;;;;13.83;4.77;;;6.30;81.90;;;;;;4881230;29;20192;-89
2022/04/11 07:57:24;;;;;;;12.50;5.03;;;6.50;81.80;;;;;;4881223;29;20193;-87
2022/04/11 07:59:50;;;;;;;10.93;4.13;;;6.50;82.20;;;;;;4881501;29;20236;-86
2022/04/11 08:02:26;;;;;;;17.40;5.13;;;6.80;83.00;;;;;;4884254;29;20583;-87
2022/04/11 08:04:54;;;;;;;15.50;5.13;;;6.70;81.70;;;;;;4885815;29;20621;-87
2022/04/11 08:07:20;;;;;;;15.30;5.60;;;6.80;82.00;;;;;;4887088;29;20181;-87
2022/04/11 08:09:48;;;;;;;10.07;4.90;;;6.80;81.40;;;;;;4887051;29;20181;-86
2022/04/11 08:12:16;;;;;;;14.07;5.07;;;6.80;81.30;;;;;;4886794;29;20185;-87
2022/04/11 08:14:42;;;;;;;15.03;4.97;;;7.00;81.90;;;;;;4886325;29;20720;-86
2022/04/11 08:17:07;;;;;;;12.10;4.60;;;7.10;81.40;;;;;;4886583;29;20186;-86
2022/04/11 08:19:33;;;;;;;14.03;5.20;;;7.20;81.50;;;;;;4885428;29;20623;-87
2022/04/11 08:21:58;;;;;;;10.17;4.43;;;7.30;81.70;;;;;;4884258;29;20616;-88
2022/04/11 08:24:24;;;;;;;8.63;3.73;;;7.40;81.30;;;;;;4886608;29;20170;-86
2022/04/11 08:26:50;;;;;;;10.47;4.80;;;7.40;81.00;;;;;;4885998;29;20179;-87
2022/04/11 08:29:17;;;;;;;14.90;4.97;;;7.50;80.80;;;;;;4884989;29;20202;-88
2022/04/11 08:31:43;;;;;;;8.70;4.60;;;7.60;79.70;;;;;;4885064;29;20178;-88
2022/04/11 08:34:09;;;;;;;11.17;4.33;;;7.70;79.50;;;;;;4886457;29;20184;-86
2022/04/11 08:36:35;;;;;;;12.63;4.23;;;7.70;78.60;;;;;;4884614;29;20188;-87
2022/04/11 08:39:01;;;;;;;19.13;4.70;;;7.70;78.00;;;;;;4885554;29;20194;-88
2022/04/11 08:41:36;;;;;;;8.77;4.37;;;7.80;79.10;;;;;;4881552;29;20206;-88
2022/04/11 08:44:04;;;;;;;5.70;4.23;;;7.90;78.00;;;;;;4884601;29;20173;-86
2022/04/11 08:46:31;;;;;;;12.13;4.40;;;7.90;78.20;;;;;;4885447;29;20175;-87
2022/04/11 08:48:59;;;;;;;16.20;4.97;;;8.00;78.00;;;;;;4883874;29;20210;-87
2022/04/11 08:51:26;;;;;;;14.53;4.80;;;8.10;77.40;;;;;;4883820;29;20652;-87
2022/04/11 08:53:52;;;;;;;11.50;3.50;;;8.20;77.00;;;;;;4883704;29;20245;-86
2022/04/11 08:56:18;;;;;;;9.60;4.27;;;8.00;75.60;;;;;;4883063;29;20190;-86
2022/04/11 08:58:44;;;;;;;17.30;6.27;;;8.00;75.80;;;;;;4881819;29;20205;-87
2022/04/11 09:01:09;;;;;;;10.63;3.43;;;8.20;75.80;;;;;;4880873;29;20205;-87
2022/04/11 09:03:35;;;;;;;12.80;4.40;;;8.30;73.90;;;;;;4879882;29;20174;-88
2022/04/11 09:06:09;;;;;;;11.27;4.27;;;8.50;74.10;;;;;;4880716;29;20277;-86
2022/04/11 09:08:46;;;;;;;11.10;5.33;;;8.80;76.00;;;;;;4879697;29;20703;-88
2022/04/11 09:11:12;;;;;;;14.43;4.00;;;9.00;74.70;;;;;;4880954;29;20162;-86
2022/04/11 09:13:51;;;;;;;11.33;4.33;;;9.00;73.70;;;;;;4880702;29;20602;-88
2022/04/11 09:16:17;;;;;;;14.63;3.60;;;8.80;72.40;;;;;;4880764;29;20177;-89
2022/04/11 09:18:48;;;;;;;11.17;3.57;;;9.00;72.40;;;;;;4879224;29;20208;-88
2022/04/11 09:21:14;;;;;;;10.43;3.80;;;9.20;71.20;;;;;;4880166;29;20212;-88
2022/04/11 09:23:40;;;;;;;11.73;3.67;;;9.30;71.60;;;;;;4879261;29;20186;-90
2022/04/11 09:26:20;;;;;;;12.90;3.50;;;9.50;72.00;;;;;;4879258;29;20185;-86
2022/04/11 09:29:04;;;;;;;10.17;3.23;;;9.70;71.30;;;;;;4879111;29;20681;-87
2022/04/11 09:31:31;;;;;;;10.70;3.37;;;9.50;70.40;;;;;;4880509;29;20186;-86
2022/04/11 09:34:16;;;;;;;9.73;3.70;;;9.30;72.20;;;;;;4880274;29;20178;-86
2022/04/11 09:36:46;;;;;;;7.07;3.27;;;9.10;69.70;;;;;;4879020;29;20178;-86
2022/04/11 09:39:11;;;;;;;10.80;4.40;;;8.90;70.30;;;;;;4879079;29;20213;-87
2022/04/11 09:41:42;;;;;;;14.93;3.60;;;9.00;71.80;;;;;;4878908;29;20217;-86
2022/04/11 09:44:28;;;;;;;10.83;3.80;;;9.40;73.00;;;;;;4878716;29;20232;-87
2022/04/11 09:47:19;;;;;;;7.93;3.13;;;9.80;69.50;;;;;;4878963;29;20563;-86
2022/04/11 09:49:45;;;;;;;7.03;3.10;;;9.50;68.50;;;;;;4878685;29;20218;-87
2022/04/11 09:52:13;;;;;;;9.13;3.70;;;9.50;66.30;;;;;;4879935;29;20189;-87
2022/04/11 09:54:44;;;;;;;9.73;3.13;;;9.70;68.50;;;;;;4878610;29;20193;-86
2022/04/11 09:57:14;;;;;;;6.97;3.23;;;10.00;67.70;;;;;;4879905;29;20678;-87
2022/04/11 09:59:40;;;;;;;5.77;2.80;;;10.20;68.10;;;;;;4881660;29;20206;-87
2022/04/11 10:02:07;;;;;;;8.20;3.33;;;10.40;65.10;;;;;;4880633;29;20170;-87
2022/04/11 10:04:34;;;;;;;8.30;3.27;;;10.30;66.20;;;;;;4879484;29;20269;-88
2022/04/11 10:07:01;;;;;;;8.80;4.20;;;10.30;66.00;;;;;;4879120;29;20182;-88
2022/04/11 10:09:26;;;;;;;7.57;2.83;;;10.40;64.90;;;;;;4884590;29;20711;-87
2022/04/11 10:11:54;;;;;;;13.87;3.93;;;10.80;65.50;;;;;;4885566;29;20186;-85
2022/04/11 10:14:28;;;;;;;9.23;4.33;;;11.00;64.90;;;;;;4886044;29;20268;-88
2022/04/11 10:17:02;;;;;;;6.80;3.20;;;11.00;60.90;;;;;;4885336;29;20230;-87
2022/04/11 10:19:36;;;;;;;7.07;2.73;;;11.00;60.80;;;;;;4884784;29;20264;-88
2022/04/11 10:22:04;;;;;;;9.27;2.87;;;10.90;61.30;;;;;;4885140;29;20174;-88
2022/04/11 10:24:45;;;;;;;11.37;3.30;;;11.30;62.00;;;;;;4887043;29;20261;-88
2022/04/11 10:27:22;;;;;;;9.20;3.97;;;11.10;61.10;;;;;;4886740;29;20613;-87
2022/04/11 10:29:52;;;;;;;8.83;2.57;;;11.10;60.20;;;;;;4886855;29;20694;-88
2022/04/11 10:32:22;;;;;;;8.03;3.00;;;11.30;60.20;;;;;;4885311;29;20654;-87
2022/04/11 10:35:01;;;;;;;3.90;2.80;;;11.40;61.50;;;;;;4886137;29;20641;-87
2022/04/11 10:37:29;;;;;;;11.13;2.83;;;11.30;56.50;;;;;;4886816;29;20214;-87
2022/04/11 10:40:17;;;;;;;8.23;2.80;;;11.10;61.80;;;;;;4885026;29;20213;-87
2022/04/11 10:43:01;;;;;;;9.20;2.87;;;11.10;60.40;;;;;;4885379;29;20272;-87
2022/04/11 10:45:29;;;;;;;10.03;3.07;;;11.70;60.70;;;;;;4885118;29;20203;-87
2022/04/11 10:47:55;;;;;;;7.13;2.73;;;11.40;58.40;;;;;;4885609;29;20250;-88
2022/04/11 10:50:22;;;;;;;7.80;2.87;;;12.20;59.80;;;;;;4886298;29;20170;-88
2022/04/11 10:52:53;;;;;;;11.40;3.70;;;12.70;59.50;;;;;;4885189;29;20280;-88
2022/04/11 10:55:22;;;;;;;12.07;3.33;;;12.80;55.90;;;;;;4886927;29;20538;-88
2022/04/11 10:57:51;;;;;;;11.90;3.90;;;12.70;54.90;;;;;;4884979;29;20206;-87
2022/04/11 11:00:17;;;;;;;21.57;8.67;;;12.80;57.00;;;;;;4885251;29;20257;-87
2022/04/11 11:02:56;;;;;;;9.10;3.10;;;12.80;59.10;;;;;;4884880;29;20213;-89
2022/04/11 11:05:30;;;;;;;9.37;2.63;;;12.60;54.80;;;;;;4884904;29;20178;-88
2022/04/11 11:10:46;;;;;;;18.00;5.00;;;12.70;54.30;;;;;;4886680;29;20224;-88
2022/04/11 11:13:34;;;;;;;8.57;3.00;;;12.80;55.60;;;;;;4885215;29;20623;-88
2022/04/11 11:16:12;;;;;;;11.47;4.20;;;12.80;55.60;;;;;;4885178;29;20186;-87
2022/04/11 11:18:46;;;;;;;11.47;5.53;;;12.70;55.30;;;;;;4884920;29;20401;-87
2022/04/11 11:21:13;;;;;;;17.13;8.67;;;12.80;59.10;;;;;;4882611;29;20634;-87
2022/04/11 11:23:39;;;;;;;9.93;3.70;;;13.20;57.50;;;;;;4882003;29;20182;-88
2022/04/11 11:26:12;;;;;;;11.53;3.13;;;13.70;55.80;;;;;;4881618;29;20672;-87
2022/04/11 11:28:42;;;;;;;6.83;2.80;;;13.40;56.20;;;;;;4881760;29;20241;-88
2022/04/11 11:31:08;;;;;;;13.87;6.50;;;13.20;56.70;;;;;;4881452;29;20193;-88
2022/04/11 11:33:33;;;;;;;18.43;9.47;;;13.60;55.20;;;;;;4881745;29;20703;-88
2022/04/11 11:35:59;;;;;;;12.20;3.87;;;13.70;53.20;;;;;;4883249;29;20197;-87
2022/04/11 11:38:27;;;;;;;6.50;3.13;;;13.80;51.40;;;;;;4881484;29;20213;-88
2022/04/11 11:41:01;;;;;;;9.90;4.73;;;13.90;52.70;;;;;;4881297;29;20214;-88
2022/04/11 11:43:28;;;;;;;14.23;5.70;;;13.80;50.60;;;;;;4883014;29;20162;-87
2022/04/11 11:46:12;;;;;;;3.73;2.10;;;14.10;52.10;;;;;;4881909;29;20178;-87
2022/04/11 11:48:40;;;;;;;5.13;2.67;;;13.70;49.20;;;;;;4882804;29;20205;-87
2022/04/11 11:51:06;;;;;;;15.77;4.00;;;13.50;50.00;;;;;;4881510;29;20182;-87
2022/04/11 11:53:44;;;;;;;6.00;3.17;;;13.20;49.60;;;;;;4881421;29;20190;-87
2022/04/11 11:56:09;;;;;;;15.17;4.77;;;13.30;51.50;;;;;;4882267;29;20178;-88
2022/04/11 11:58:35;;;;;;;21.33;10.77;;;13.40;51.70;;;;;;4881107;29;20216;-88
2022/04/11 12:01:06;;;;;;;13.80;5.77;;;13.80;53.70;;;;;;4881322;29;20274;-87
2022/04/11 12:06:26;;;;;;;7.60;3.50;;;14.10;50.40;;;;;;4882840;29;20238;-88
2022/04/11 12:08:56;;;;;;;7.43;3.10;;;14.00;53.10;;;;;;4881360;29;20221;-88
2022/04/11 12:11:24;;;;;;;6.97;2.47;;;14.20;52.70;;;;;;4881160;29;20242;-88
2022/04/11 12:13:57;;;;;;;7.67;2.73;;;13.50;52.70;;;;;;4881541;29;20186;-87
2022/04/11 12:16:23;;;;;;;9.50;2.77;;;13.20;46.90;;;;;;4882523;29;20178;-87
2022/04/11 12:18:50;;;;;;;11.30;2.73;;;13.30;53.00;;;;;;4881085;29;20210;-87
2022/04/11 12:21:16;;;;;;;9.83;3.10;;;13.70;50.80;;;;;;4881190;29;20210;-87
2022/04/11 12:23:47;;;;;;;8.80;2.60;;;13.60;48.70;;;;;;4881096;29;20245;-88
2022/04/11 12:26:23;;;;;;;14.97;4.03;;;13.50;49.30;;;;;;4881022;29;20205;-88
2022/04/11 12:28:49;;;;;;;9.90;3.00;;;13.70;52.50;;;;;;4880596;29;20210;-87
2022/04/11 12:31:17;;;;;;;9.63;2.63;;;13.80;50.20;;;;;;4881454;29;20272;-89
2022/04/11 12:33:46;;;;;;;7.17;2.30;;;13.50;52.80;;;;;;4881466;29;20182;-87
2022/04/11 12:36:16;;;;;;;4.60;2.40;;;13.60;47.60;;;;;;4880756;29;20660;-89
2022/04/11 12:38:43;;;;;;;5.73;3.07;;;14.10;49.90;;;;;;4880194;29;20213;-88
2022/04/11 12:41:26;;;;;;;5.67;2.83;;;14.50;49.30;;;;;;4879895;29;20206;-89
2022/04/11 12:44:31;;;;;;;5.70;2.50;;;14.30;49.30;;;;;;4880871;29;20695;-90
2022/04/11 12:46:57;;;;;;;9.07;2.85;;;14.80;47.60;;;;;;4880021;29;20177;-89
2022/04/11 12:49:23;;;;;;;5.93;2.85;;;14.50;49.90;;;;;;4879830;29;20285;-89
2022/04/11 12:52:03;;;;;;;7.63;2.90;;;14.80;47.40;;;;;;4881116;29;20186;-89
2022/04/11 12:54:43;;;;;;;7.93;2.65;;;14.50;46.30;;;;;;4881084;29;20269;-90
2022/04/11 12:57:12;;;;;;;7.55;3.25;;;14.40;50.60;;;;;;4879565;29;20174;-90